Durango Ski Resort, Colorado Weather observations

Data are for observation ending at time listed.
 Day   Time    Ave.   Ave.  Ave.  Vector   Max.    Total    Solar   Ave.  
  of    of     Air    Rel.  Wind   Wind    Wind   Precip.   Rad.    Soil  
Year   Day     Temp.  Hum.  Speed  Dir.    Gust                     Temp. 
2014   (PST)    F      %     mph   deg.    mph      in.     W/m2     F   
------------------------------------------------------------------------------
 105   21:00   31.1    20    6.8   336      9.5    99999.00   99999    99999.0
 105   21:10   31.3    20    8.2   324     12.1    99999.00   99999    99999.0
 105   21:20   31.5    20    9.7   315     15.5    99999.00   99999    99999.0
 105   21:30   31.6    20    8.5   310     12.5    99999.00   99999    99999.0
 105   21:40   31.4    20    8.6   314     10.3    99999.00   99999    99999.0
 105   21:50   31.4    20    9.4   318     12.5    99999.00   99999    99999.0
 105   22:00   31.4    20    9.4   323     12.5    99999.00   99999    99999.0
 105   22:10   31.7    20   11.4   323     14.6    99999.00   99999    99999.0
 105   22:20   31.6    20   10.9   321     15.0    99999.00   99999    99999.0
 105   22:30   31.7    20   11.3   311     14.2    99999.00   99999    99999.0
 105   22:40   31.6    20   10.5   302     15.5    99999.00   99999    99999.0
 105   22:50   31.7    20    9.7   296     13.8    99999.00   99999    99999.0
 105   23:00   31.8    20    9.9   307     12.9    99999.00   99999    99999.0
 105   23:10   32.1    20   10.4   312     12.1    99999.00   99999    99999.0
 105   23:20   32.3    20   10.0   318     12.9    99999.00   99999    99999.0
 105   23:30   32.5    20   10.6   318     13.8    99999.00   99999    99999.0
 105   23:40   32.4    20   10.1   315     12.5    99999.00   99999    99999.0
 105   23:50   32.5    20   10.0   313     12.1    99999.00   99999    99999.0
 106    0:00   32.5    20    8.8   315     10.3    99999.00   99999    99999.0
 106    0:10   32.5    20    9.0   318     11.2    99999.00   99999    99999.0
 106    0:20   32.5    20    8.6   310     10.8    99999.00   99999    99999.0
 106    0:30   32.4    20    8.4   307     11.2    99999.00   99999    99999.0
 106    0:40   32.3    20    9.0   309     10.8    99999.00   99999    99999.0
 106    0:50   32.1    20    9.5   308     11.2    99999.00   99999    99999.0
 106    1:00   32.1    20    8.4   308     11.6    99999.00   99999    99999.0
 106    1:10   32.0    21    9.2   296     12.9    99999.00   99999    99999.0
 106    1:20   31.8    21    7.5   316      9.9    99999.00   99999    99999.0
 106    1:30   31.5    22    8.7   313     12.1    99999.00   99999    99999.0
 106    1:40   31.3    23    9.4   308     12.1    99999.00   99999    99999.0
 106    1:50   31.2    23    8.7   307     12.9    99999.00   99999    99999.0
 106    2:00   31.1    23    7.2   309      9.5    99999.00   99999    99999.0
 106    2:10   31.0    23    8.0   316     13.8    99999.00   99999    99999.0
 106    2:20   30.9    23    8.7   314     13.3    99999.00   99999    99999.0
 106    2:30   30.6    24    7.2   316      9.5    99999.00   99999    99999.0
 106    2:40   30.4    24    6.8   318      8.6    99999.00   99999    99999.0
 106    2:50   30.4    24    6.8   323      9.9    99999.00   99999    99999.0
 106    3:00   30.1    25    9.3   310     12.9    99999.00   99999    99999.0
 106    3:10   30.1    25    9.7   311     12.1    99999.00   99999    99999.0
 106    3:20   30.2    24   10.5   316     13.3    99999.00   99999    99999.0
 106    3:30   30.1    25    9.7   326     14.2    99999.00   99999    99999.0
 106    3:40   30.1    25   11.2   317     16.3    99999.00   99999    99999.0
 106    3:50   29.6    26    9.6   314     12.5    99999.00   99999    99999.0
 106    4:00   29.5    26    7.9   323     11.6    99999.00   99999    99999.0
 106    4:10   29.5    26    8.8   324     11.6    99999.00   99999    99999.0
 106    4:20   29.7    26    9.6   329     14.6    99999.00   99999    99999.0
 106    4:30   29.9    27   10.7   326     14.6    99999.00   99999    99999.0
 106    4:40   30.0    27   11.3   326     13.8    99999.00   99999    99999.0
 106    4:50   29.9    28    8.3   333     12.1    99999.00   99999    99999.0
 106    5:00   30.2    28    7.7   322     11.6    99999.00   99999    99999.0
 106    5:10   30.5    28    6.3   325     12.9    99999.00   99999    99999.0
 106    5:20   30.0    29    3.6   282      6.9    99999.00   99999    99999.0
 106    5:30   30.4    30    9.4   322     14.6    99999.00   99999    99999.0
 106    5:40   30.3    30   11.6   330     19.3    99999.00   99999    99999.0
 106    5:50   30.3    30   15.8   326     24.4    99999.00   99999    99999.0
 106    6:00   29.9    31   13.7   329     21.4    99999.00   99999    99999.0
 106    6:10   30.7    31    8.7   342     15.5    99999.00   99999    99999.0
 106    6:20   31.2    31    8.7   339     14.2    99999.00   99999    99999.0
 106    6:30   31.9    33    9.4   343     17.2    99999.00   99999    99999.0
 106    6:40   32.3    34   10.8   339     17.2    99999.00   99999    99999.0
 106    6:50   32.5    35   12.6   328     21.4    99999.00   99999    99999.0
 106    7:00   32.6    35   12.8   316     19.7    99999.00   99999    99999.0
 106    7:10   32.3    36   10.9   319     16.8    99999.00   99999    99999.0
 106    7:20   32.6    38   11.9   330     18.9    99999.00   99999    99999.0
 106    7:30   32.9    38   10.3   332     17.2    99999.00   99999    99999.0
 106    7:40   32.8    39   13.2   321     20.2    99999.00   99999    99999.0
 106    7:50   32.6    40   12.5   322     19.3    99999.00   99999    99999.0
 106    8:00   33.3    39   12.3   320     21.0    99999.00   99999    99999.0
 106    8:10   34.1    38   13.3   325     23.6    99999.00   99999    99999.0
 106    8:20   33.8    40   14.4   327     25.3    99999.00   99999    99999.0
 106    8:30   33.6    42   12.9   328     21.0    99999.00   99999    99999.0
 106    8:40   33.3    44   12.5   340     21.9    99999.00   99999    99999.0
 106    8:50   33.6    44   12.4   323     24.0    99999.00   99999    99999.0
 106    9:00   34.1    41   13.7   314     26.6    99999.00   99999    99999.0
 106    9:10   34.6    39   15.5   307     24.9    99999.00   99999    99999.0
 106    9:20   34.5    38   17.1   301     23.1    99999.00   99999    99999.0
 106    9:30   35.1    36   11.8   298     18.5    99999.00   99999    99999.0
 106    9:40   35.5    36   12.3   311     18.9    99999.00   99999    99999.0
 106    9:50   35.9    34   11.9   302     23.6    99999.00   99999    99999.0
 106   10:00   36.7    33    8.0   299     15.9    99999.00   99999    99999.0
 106   10:10   36.4    34   12.6   313     24.0    99999.00   99999    99999.0
 106   10:20   35.9    33   12.6   306     22.3    99999.00   99999    99999.0
 106   10:30   36.1    33   13.0   286     23.6    99999.00   99999    99999.0
 106   10:40   38.2    32    9.0   286     23.1    99999.00   99999    99999.0
 106   10:50   37.1    33   13.0   297     19.7    99999.00   99999    99999.0
 106   11:00   37.6    32    8.8   286     15.9    99999.00   99999    99999.0
 106   11:10   38.3    32    9.8   280     22.3    99999.00   99999    99999.0
 106   11:20   36.5    34   15.2   311     27.8    99999.00   99999    99999.0
 106   11:30   36.7    35   11.4   291     28.7    99999.00   99999    99999.0
 106   11:40   36.1    35   13.3   297     23.1    99999.00   99999    99999.0
 106   11:50   35.2    38   16.6   312     30.0    99999.00   99999    99999.0
 106   12:00   34.5    41   18.9   320     29.5    99999.00   99999    99999.0
 106   12:10   34.7    42   16.4   315     23.6    99999.00   99999    99999.0
 106   12:20   35.1    43   14.0   316     21.9    99999.00   99999    99999.0
 106   12:30   35.1    43   14.1   313     23.1    99999.00   99999    99999.0
 106   12:40   35.3    44   15.4   312     24.4    99999.00   99999    99999.0
 106   12:50   35.2    43   13.4   301     23.6    99999.00   99999    99999.0
 106   13:00   34.9    44   11.1   316     18.9    99999.00   99999    99999.0
 106   13:10   35.2    44   11.9   316     19.3    99999.00   99999    99999.0
 106   13:20   35.5    42   13.2   305     19.3    99999.00   99999    99999.0
 106   13:30   37.1    41    8.8   293     18.9    99999.00   99999    99999.0
 106   13:40   35.3    45   11.2   314     17.2    99999.00   99999    99999.0
 106   13:50   34.3    48    9.6   328     18.5    99999.00   99999    99999.0
 106   14:00   34.1    48   11.8   307     18.9    99999.00   99999    99999.0
 106   14:10   33.9    48   10.9   288     18.0    99999.00   99999    99999.0
 106   14:20   34.1    48   13.8   316     20.6    99999.00   99999    99999.0
 106   14:30   34.4    48   14.2   302     24.4    99999.00   99999    99999.0
 106   14:40   34.0    50   11.6   296     22.3    99999.00   99999    99999.0
 106   14:50   34.1    50   12.6   302     18.9    99999.00   99999    99999.0
 106   15:00   33.6    52   13.3   313     20.6    99999.00   99999    99999.0
 106   15:10   32.7    54   15.1   307     23.1    99999.00   99999    99999.0
 106   15:20   32.9    54   11.5   300     19.7    99999.00   99999    99999.0
 106   15:30   34.0    53    9.0   294     16.8    99999.00   99999    99999.0
 106   15:40   33.6    54   10.8   300     21.0    99999.00   99999    99999.0
 106   15:50   33.9    53    9.3   270     15.9    99999.00   99999    99999.0
 106   16:00   33.5    54    9.2   297     17.2    99999.00   99999    99999.0
 106   16:10   32.8    54   10.3   285     16.8    99999.00   99999    99999.0
 106   16:20   32.9    55    9.1   284     15.0    99999.00   99999    99999.0
 106   16:30   32.6    56   10.3   282     18.0    99999.00   99999    99999.0
 106   16:40   32.1    57    9.1   281     14.2    99999.00   99999    99999.0
 106   16:50   31.8    58    9.0   292     12.5    99999.00   99999    99999.0
 106   17:00   31.9    59   10.0   307     18.9    99999.00   99999    99999.0
 106   17:10   31.4    63   10.7   319     18.5    99999.00   99999    99999.0
 106   17:20   31.1    65    9.4   334     13.8    99999.00   99999    99999.0
 106   17:30   30.3    68   11.3   331     18.5    99999.00   99999    99999.0
 106   17:40   30.4    68    9.6   333     14.2    99999.00   99999    99999.0
 106   17:50   29.8    68   10.8   334     16.3    99999.00   99999    99999.0
 106   18:00   29.2    71   11.2   327     16.8    99999.00   99999    99999.0
 106   18:10   28.6    73   10.8   315     15.5    99999.00   99999    99999.0
 106   18:20   28.7    73   11.8   326     16.8    99999.00   99999    99999.0
 106   18:30   28.5    73   11.8   324     19.3    99999.00   99999    99999.0
 106   18:40   28.2    74   12.8   324     22.3    99999.00   99999    99999.0
 106   18:50   27.8    76   16.4   322     24.9    99999.00   99999    99999.0
 106   19:00   27.3    78   17.2   321     24.9    99999.00   99999    99999.0
 106   19:10   26.9    78   15.2   321     22.3    99999.00   99999    99999.0
 106   19:20   26.6    78   15.5   318     19.3    99999.00   99999    99999.0
 106   19:30   26.5    79   15.2   314     21.9    99999.00   99999    99999.0
 106   19:40   26.3    78   13.5   322     18.5    99999.00   99999    99999.0
 106   19:50   26.1    79   12.2   319     17.2    99999.00   99999    99999.0
 106   20:00   26.1    79   11.3   317     16.3    99999.00   99999    99999.0
 106   20:10   25.9    80   10.8   319     16.3    99999.00   99999    99999.0
 106   20:20   25.9    78   10.1   319     15.0    99999.00   99999    99999.0
 106   20:30   25.9    77   10.1   322     17.6    99999.00   99999    99999.0
 106   20:40   26.4    71   10.9   338     15.0    99999.00   99999    99999.0
 106   20:50   27.2    66    9.6   350     16.3    99999.00   99999    99999.0

Return to Durango Ski Resort, Colorado graphs page.


Western Regional Climate Center,wrcc@dri.edu